Etusivu
METAR-TAF:

METAR-TAF

Lentoasemat :

Hiroshima, Japani

Leveyspiiri: 34-26N, Pituuspiiri: 132-55E, korkeus merenpinnasta: 331 m

Tämänhetkinen sää

Tämä raportti tehtiin 35 minuuttia sitten, kello 03.00 UTC
Tuuli 6 kn etelästä/kaakosta, vaihdellen idän ja etelän/lounaan välillä
Lämpötila 27°C
Kosteus 58%
Ilmanpaine 1005 hPa
Näkyvyys 10 km tai enemmän
Muutamia pilviä 2500 ft:n korkeudessa
Hajonneita pilviä

METAR: RJOA 150300Z 15006KT 080V200 9999 FEW025 BKN/// 27/18 Q1005

Aika: 12:35 (03:35 UTC)

Sääennuste

Tämä raportti tehtiin 4 tuntia ja 30 minuuttia sitten, kello 23.05 UTC
Ennuste voimassa 15. päivästä klo 00 UTC - 16. päivään klo 06 UTC
Tuuli 5 kn kaakosta
Näkyvyys 10 km tai enemmän
Muutamia pilviä 2500 ft:n korkeudessa
Hajanaisia pilviä 4500 ft:n korkeudessa
Tulossa
15. päivästä klo 09 UTC - 15. päivään klo 11 UTC
Tuuli 4 kn luoteesta

TAF: RJOA 142305Z 1500/1606 14005KT 9999 FEW025 SCT045 BECMG 1509/1511 32004KT

Säähavainnot ja -ennusteet yli 4000 lentoasemalta (METAR- ja TAF-raportit).

Käytössä olevat sääasemat on merkitty karttaan keltaisilla ja punaisilla pisteillä.

Aseta hiiri pisteen päälle nähdäksesi sääaseman nimen.

Klikkaa sitten nähdäksesi säähavainnot ja -ennusteet.

Kartan vaihtaminen: klikkaa mustalla rastilla varustettuja vihreitä pisteitä, niin voit zoomata sisään; viivalla varustettua vihreää pistettä, niin voit zoomata ulos tai vihreitä nuolia, niin pääset viereisille kartoille.


METAR-TAF: